sensor_id;sensor_type;location;lat;lon;timestamp;pressure;altitude;pressure_sealevel;temperature;humidity
41234;BME280;26968;42.686;23.352;2023-01-25T00:00:40;96339.97;;;3.32;73.55
41234;BME280;26968;42.686;23.352;2023-01-25T00:03:05;96336.16;;;3.41;73.10
41234;BME280;26968;42.686;23.352;2023-01-25T00:05:31;96338.38;;;3.38;73.93
41234;BME280;26968;42.686;23.352;2023-01-25T00:07:56;96285.69;;;2.93;74.75
41234;BME280;26968;42.686;23.352;2023-01-25T00:10:21;96342.00;;;3.37;74.87
41234;BME280;26968;42.686;23.352;2023-01-25T00:12:47;96324.44;;;3.18;75.06
41234;BME280;26968;42.686;23.352;2023-01-25T00:15:14;96301.22;;;3.01;74.99
41234;BME280;26968;42.686;23.352;2023-01-25T00:17:39;96339.97;;;3.32;74.92
41234;BME280;26968;42.686;23.352;2023-01-25T00:20:05;96345.03;;;3.34;74.53
41234;BME280;26968;42.686;23.352;2023-01-25T00:22:31;96335.75;;;3.31;74.59
41234;BME280;26968;42.686;23.352;2023-01-25T00:24:56;96337.75;;;3.23;74.66
41234;BME280;26968;42.686;23.352;2023-01-25T00:27:22;96336.13;;;3.22;75.24
41234;BME280;26968;42.686;23.352;2023-01-25T00:29:47;96262.63;;;2.69;75.85
41234;BME280;26968;42.686;23.352;2023-01-25T00:34:43;96310.53;;;3.17;75.41
41234;BME280;26968;42.686;23.352;2023-01-25T00:37:29;96333.69;;;3.07;75.54
41234;BME280;26968;42.686;23.352;2023-01-25T00:39:55;96317.72;;;2.89;76.10
41234;BME280;26968;42.686;23.352;2023-01-25T00:42:21;96336.72;;;3.10;76.17
41234;BME280;26968;42.686;23.352;2023-01-25T00:44:47;96249.50;;;2.56;75.39
41234;BME280;26968;42.686;23.352;2023-01-25T00:47:13;96329.66;;;3.11;75.24
41234;BME280;26968;42.686;23.352;2023-01-25T00:49:40;96342.78;;;3.18;75.32
41234;BME280;26968;42.686;23.352;2023-01-25T00:52:06;96313.75;;;3.13;75.29
41234;BME280;26968;42.686;23.352;2023-01-25T00:54:32;96310.31;;;3.12;75.57
41234;BME280;26968;42.686;23.352;2023-01-25T00:56:57;96337.16;;;3.27;75.81
41234;BME280;26968;42.686;23.352;2023-01-25T00:59:23;96321.38;;;3.14;75.34
41234;BME280;26968;42.686;23.352;2023-01-25T01:01:49;96281.44;;;2.86;74.98
41234;BME280;26968;42.686;23.352;2023-01-25T01:04:15;96326.06;;;3.19;74.45
41234;BME280;26968;42.686;23.352;2023-01-25T01:06:41;96300.19;;;2.89;74.56
41234;BME280;26968;42.686;23.352;2023-01-25T01:09:11;96287.09;;;2.89;74.79
41234;BME280;26968;42.686;23.352;2023-01-25T01:11:37;96337.72;;;3.16;74.45
41234;BME280;26968;42.686;23.352;2023-01-25T01:14:03;96334.50;;;3.21;73.79
41234;BME280;26968;42.686;23.352;2023-01-25T01:16:28;96334.31;;;3.22;74.06
41234;BME280;26968;42.686;23.352;2023-01-25T01:18:53;96197.88;;;2.37;74.91
41234;BME280;26968;42.686;23.352;2023-01-25T01:21:19;96279.63;;;2.86;75.31
41234;BME280;26968;42.686;23.352;2023-01-25T01:23:45;96285.28;;;2.90;74.88
41234;BME280;26968;42.686;23.352;2023-01-25T01:26:13;96270.13;;;2.85;74.52
41234;BME280;26968;42.686;23.352;2023-01-25T01:28:39;96304.25;;;3.05;74.81
41234;BME280;26968;42.686;23.352;2023-01-25T01:31:23;96255.84;;;2.81;74.92
41234;BME280;26968;42.686;23.352;2023-01-25T01:33:52;96323.44;;;3.25;74.63
41234;BME280;26968;42.686;23.352;2023-01-25T01:36:20;96310.09;;;3.07;74.82
41234;BME280;26968;42.686;23.352;2023-01-25T01:38:46;96263.28;;;2.91;75.34
41234;BME280;26968;42.686;23.352;2023-01-25T01:41:12;96221.13;;;2.59;75.51
41234;BME280;26968;42.686;23.352;2023-01-25T01:43:38;96245.72;;;2.71;75.27
41234;BME280;26968;42.686;23.352;2023-01-25T01:48:48;96206.38;;;2.52;75.51
41234;BME280;26968;42.686;23.352;2023-01-25T01:54:27;96273.38;;;2.94;74.93
41234;BME280;26968;42.686;23.352;2023-01-25T01:57:00;96296.78;;;2.95;75.18
41234;BME280;26968;42.686;23.352;2023-01-25T01:59:35;96275.50;;;2.51;75.31
41234;BME280;26968;42.686;23.352;2023-01-25T02:02:04;96292.25;;;2.69;75.67
41234;BME280;26968;42.686;23.352;2023-01-25T02:04:30;96266.47;;;2.66;75.64
41234;BME280;26968;42.686;23.352;2023-01-25T02:09:30;96312.88;;;2.92;76.02
41234;BME280;26968;42.686;23.352;2023-01-25T02:11:58;96276.38;;;2.84;75.53
41234;BME280;26968;42.686;23.352;2023-01-25T02:14:26;96243.28;;;2.57;75.79
41234;BME280;26968;42.686;23.352;2023-01-25T02:16:52;96315.94;;;3.02;75.54
41234;BME280;26968;42.686;23.352;2023-01-25T02:19:49;96309.09;;;3.08;75.46
41234;BME280;26968;42.686;23.352;2023-01-25T02:22:20;96303.66;;;3.03;75.38
41234;BME280;26968;42.686;23.352;2023-01-25T02:27:31;96265.28;;;2.76;76.24
41234;BME280;26968;42.686;23.352;2023-01-25T02:29:58;96257.03;;;2.72;76.21
41234;BME280;26968;42.686;23.352;2023-01-25T02:32:23;96282.41;;;2.78;76.10
41234;BME280;26968;42.686;23.352;2023-01-25T02:34:49;96286.47;;;2.87;76.11
41234;BME280;26968;42.686;23.352;2023-01-25T02:37:14;96258.03;;;2.78;76.07
41234;BME280;26968;42.686;23.352;2023-01-25T02:39:40;96265.09;;;2.77;75.53
41234;BME280;26968;42.686;23.352;2023-01-25T02:42:06;96302.03;;;3.08;75.72
41234;BME280;26968;42.686;23.352;2023-01-25T02:44:32;96305.25;;;3.04;75.44
41234;BME280;26968;42.686;23.352;2023-01-25T02:46:58;96286.28;;;2.95;75.68
41234;BME280;26968;42.686;23.352;2023-01-25T02:49:23;96273.16;;;2.82;75.52
41234;BME280;26968;42.686;23.352;2023-01-25T02:51:52;96295.16;;;2.94;76.40
41234;BME280;26968;42.686;23.352;2023-01-25T02:54:22;96268.75;;;2.89;75.67
41234;BME280;26968;42.686;23.352;2023-01-25T02:56:48;96248.34;;;2.71;76.20
41234;BME280;26968;42.686;23.352;2023-01-25T02:59:14;96242.50;;;2.69;75.40
41234;BME280;26968;42.686;23.352;2023-01-25T03:01:41;96281.78;;;2.76;75.96
41234;BME280;26968;42.686;23.352;2023-01-25T03:04:07;96249.78;;;2.81;75.76
41234;BME280;26968;42.686;23.352;2023-01-25T03:06:33;96266.94;;;2.90;75.13
41234;BME280;26968;42.686;23.352;2023-01-25T03:09:00;96298.22;;;3.11;74.72
41234;BME280;26968;42.686;23.352;2023-01-25T03:11:25;96308.69;;;3.11;74.19
41234;BME280;26968;42.686;23.352;2023-01-25T03:13:51;96307.06;;;2.97;74.01
41234;BME280;26968;42.686;23.352;2023-01-25T03:16:17;96315.13;;;2.95;73.79
41234;BME280;26968;42.686;23.352;2023-01-25T03:18:42;96299.75;;;2.86;73.76
41234;BME280;26968;42.686;23.352;2023-01-25T03:23:33;96301.56;;;2.85;74.91
41234;BME280;26968;42.686;23.352;2023-01-25T03:28:30;96300.13;;;2.76;76.33
41234;BME280;26968;42.686;23.352;2023-01-25T03:30:56;96308.25;;;2.88;76.80
41234;BME280;26968;42.686;23.352;2023-01-25T03:33:21;96229.56;;;2.48;76.13
41234;BME280;26968;42.686;23.352;2023-01-25T03:35:51;96257.56;;;2.61;76.22
41234;BME280;26968;42.686;23.352;2023-01-25T03:38:16;96245.72;;;2.58;75.95
41234;BME280;26968;42.686;23.352;2023-01-25T03:40:43;96212.03;;;2.42;75.75
41234;BME280;26968;42.686;23.352;2023-01-25T03:43:09;96305.03;;;3.05;76.04
41234;BME280;26968;42.686;23.352;2023-01-25T03:45:34;96277.53;;;2.68;75.71
41234;BME280;26968;42.686;23.352;2023-01-25T03:47:59;96226.31;;;2.46;75.24
41234;BME280;26968;42.686;23.352;2023-01-25T03:50:25;96256.00;;;2.66;76.36
41234;BME280;26968;42.686;23.352;2023-01-25T03:53:01;96284.47;;;2.96;75.85
41234;BME280;26968;42.686;23.352;2023-01-25T03:55:46;96278.44;;;2.95;75.10
41234;BME280;26968;42.686;23.352;2023-01-25T03:58:11;96247.75;;;2.76;74.73
41234;BME280;26968;42.686;23.352;2023-01-25T04:00:36;96286.69;;;2.99;75.10
41234;BME280;26968;42.686;23.352;2023-01-25T04:03:02;96284.50;;;3.09;75.47
41234;BME280;26968;42.686;23.352;2023-01-25T04:05:27;96266.09;;;2.83;76.22
41234;BME280;26968;42.686;23.352;2023-01-25T04:07:53;96167.06;;;2.25;75.29
41234;BME280;26968;42.686;23.352;2023-01-25T04:10:18;96264.91;;;2.98;75.52
41234;BME280;26968;42.686;23.352;2023-01-25T04:12:44;96280.69;;;3.12;75.33
41234;BME280;26968;42.686;23.352;2023-01-25T04:15:09;96288.53;;;3.05;74.97
41234;BME280;26968;42.686;23.352;2023-01-25T04:17:34;96239.88;;;2.69;75.05
41234;BME280;26968;42.686;23.352;2023-01-25T04:20:00;96216.84;;;2.52;75.61
41234;BME280;26968;42.686;23.352;2023-01-25T04:22:25;96261.69;;;2.90;75.17
41234;BME280;26968;42.686;23.352;2023-01-25T04:24:51;96252.41;;;2.74;75.31
41234;BME280;26968;42.686;23.352;2023-01-25T04:27:16;96200.94;;;2.47;75.25
41234;BME280;26968;42.686;23.352;2023-01-25T04:29:41;96236.25;;;2.77;75.38
41234;BME280;26968;42.686;23.352;2023-01-25T04:32:07;96257.25;;;2.90;75.74
41234;BME280;26968;42.686;23.352;2023-01-25T04:34:32;96264.91;;;2.98;75.35
41234;BME280;26968;42.686;23.352;2023-01-25T04:36:58;96290.13;;;3.06;75.36
41234;BME280;26968;42.686;23.352;2023-01-25T04:39:23;96257.66;;;2.81;75.06
41234;BME280;26968;42.686;23.352;2023-01-25T04:41:48;96277.63;;;2.95;75.46
41234;BME280;26968;42.686;23.352;2023-01-25T04:44:14;96209.63;;;2.54;75.00
41234;BME280;26968;42.686;23.352;2023-01-25T04:46:39;96257.63;;;2.74;75.08
41234;BME280;26968;42.686;23.352;2023-01-25T04:49:05;96227.16;;;2.60;74.21
41234;BME280;26968;42.686;23.352;2023-01-25T04:51:30;96278.63;;;2.87;74.46
41234;BME280;26968;42.686;23.352;2023-01-25T04:53:55;96298.41;;;3.03;74.21
41234;BME280;26968;42.686;23.352;2023-01-25T04:56:21;96247.13;;;2.67;74.36
41234;BME280;26968;42.686;23.352;2023-01-25T04:58:46;96292.34;;;3.09;74.32
41234;BME280;26968;42.686;23.352;2023-01-25T05:01:12;96275.56;;;2.84;74.34
41234;BME280;26968;42.686;23.352;2023-01-25T05:03:37;96302.84;;;3.02;73.98
41234;BME280;26968;42.686;23.352;2023-01-25T05:06:02;96239.88;;;2.63;73.41
41234;BME280;26968;42.686;23.352;2023-01-25T05:08:28;96221.72;;;2.55;73.75
41234;BME280;26968;42.686;23.352;2023-01-25T05:10:53;96219.72;;;2.57;73.78
41234;BME280;26968;42.686;23.352;2023-01-25T05:13:19;96249.97;;;2.72;74.51
41234;BME280;26968;42.686;23.352;2023-01-25T05:15:45;96294.16;;;3.02;74.23
41234;BME280;26968;42.686;23.352;2023-01-25T05:18:10;96129.97;;;2.02;74.32
41234;BME280;26968;42.686;23.352;2023-01-25T05:20:35;96118.28;;;1.98;73.96
41234;BME280;26968;42.686;23.352;2023-01-25T05:23:01;96278.00;;;2.92;73.87
41234;BME280;26968;42.686;23.352;2023-01-25T05:25:27;96251.09;;;2.44;73.96
41234;BME280;26968;42.686;23.352;2023-01-25T05:28:11;96286.28;;;2.82;74.39
41234;BME280;26968;42.686;23.352;2023-01-25T05:30:36;96259.78;;;2.51;74.96
41234;BME280;26968;42.686;23.352;2023-01-25T05:33:02;96197.00;;;2.10;74.73
41234;BME280;26968;42.686;23.352;2023-01-25T05:35:27;96293.66;;;2.59;74.80
41234;BME280;26968;42.686;23.352;2023-01-25T05:37:59;96287.25;;;2.75;74.75
41234;BME280;26968;42.686;23.352;2023-01-25T05:40:25;96257.50;;;2.35;75.13
41234;BME280;26968;42.686;23.352;2023-01-25T05:42:58;96291.63;;;2.61;75.64
41234;BME280;26968;42.686;23.352;2023-01-25T05:45:24;96297.13;;;2.72;75.24
41234;BME280;26968;42.686;23.352;2023-01-25T05:47:54;96269.28;;;2.58;75.00
41234;BME280;26968;42.686;23.352;2023-01-25T05:50:21;96262.78;;;2.48;74.99
41234;BME280;26968;42.686;23.352;2023-01-25T05:52:47;96257.72;;;2.46;75.92
41234;BME280;26968;42.686;23.352;2023-01-25T05:55:13;96207.50;;;2.16;74.82
41234;BME280;26968;42.686;23.352;2023-01-25T05:57:39;96259.19;;;2.55;74.51
41234;BME280;26968;42.686;23.352;2023-01-25T06:00:05;96231.34;;;2.41;74.88
41234;BME280;26968;42.686;23.352;2023-01-25T06:02:30;96235.16;;;2.45;74.25
41234;BME280;26968;42.686;23.352;2023-01-25T06:04:56;96132.09;;;1.79;74.37
41234;BME280;26968;42.686;23.352;2023-01-25T06:07:22;96235.97;;;2.46;74.34
41234;BME280;26968;42.686;23.352;2023-01-25T06:09:47;96279.19;;;2.76;73.45
41234;BME280;26968;42.686;23.352;2023-01-25T06:12:13;96281.97;;;2.68;73.75
41234;BME280;26968;42.686;23.352;2023-01-25T06:14:40;96300.53;;;2.73;73.15
41234;BME280;26968;42.686;23.352;2023-01-25T06:17:06;96260.53;;;2.45;72.97
41234;BME280;26968;42.686;23.352;2023-01-25T06:19:31;96208.91;;;2.12;73.08
41234;BME280;26968;42.686;23.352;2023-01-25T06:21:56;96273.28;;;2.61;72.97
41234;BME280;26968;42.686;23.352;2023-01-25T06:24:22;96304.63;;;2.82;73.44
41234;BME280;26968;42.686;23.352;2023-01-25T06:26:47;96311.88;;;2.93;73.06
41234;BME280;26968;42.686;23.352;2023-01-25T06:29:13;96258.38;;;2.61;72.58
41234;BME280;26968;42.686;23.352;2023-01-25T06:31:38;96189.59;;;2.20;72.36
41234;BME280;26968;42.686;23.352;2023-01-25T06:34:04;96315.13;;;2.95;73.16
41234;BME280;26968;42.686;23.352;2023-01-25T06:36:30;96310.88;;;2.94;73.22
41234;BME280;26968;42.686;23.352;2023-01-25T06:38:56;96284.63;;;2.75;73.56
41234;BME280;26968;42.686;23.352;2023-01-25T06:41:24;96289.88;;;2.81;73.49
41234;BME280;26968;42.686;23.352;2023-01-25T06:43:49;96283.22;;;2.79;73.06
41234;BME280;26968;42.686;23.352;2023-01-25T06:46:15;96260.00;;;2.62;73.25
41234;BME280;26968;42.686;23.352;2023-01-25T06:48:41;96200.31;;;2.38;73.12
41234;BME280;26968;42.686;23.352;2023-01-25T06:51:09;96187.41;;;2.30;72.57
41234;BME280;26968;42.686;23.352;2023-01-25T06:53:37;96253.16;;;2.68;72.77
41234;BME280;26968;42.686;23.352;2023-01-25T06:56:12;96281.00;;;2.76;73.45
41234;BME280;26968;42.686;23.352;2023-01-25T06:58:38;96223.69;;;2.40;72.71
41234;BME280;26968;42.686;23.352;2023-01-25T07:01:07;96315.94;;;2.96;71.97
41234;BME280;26968;42.686;23.352;2023-01-25T07:03:33;96287.03;;;2.76;72.32
41234;BME280;26968;42.686;23.352;2023-01-25T07:06:01;96198.44;;;2.12;73.30
41234;BME280;26968;42.686;23.352;2023-01-25T07:08:27;96313.69;;;2.93;72.78
41234;BME280;26968;42.686;23.352;2023-01-25T07:10:56;96212.00;;;2.36;72.88
41234;BME280;26968;42.686;23.352;2023-01-25T07:13:23;96264.84;;;2.59;73.42
41234;BME280;26968;42.686;23.352;2023-01-25T07:15:54;96230.75;;;2.46;73.59
41234;BME280;26968;42.686;23.352;2023-01-25T07:18:20;96238.22;;;2.49;73.93
41234;BME280;26968;42.686;23.352;2023-01-25T07:20:46;96260.84;;;2.76;73.55
41234;BME280;26968;42.686;23.352;2023-01-25T07:23:11;96257.22;;;2.77;73.85
41234;BME280;26968;42.686;23.352;2023-01-25T07:25:42;96235.22;;;2.58;74.12
41234;BME280;26968;42.686;23.352;2023-01-25T07:28:07;96202.75;;;2.40;72.70
41234;BME280;26968;42.686;23.352;2023-01-25T07:30:33;96227.31;;;2.45;73.16
41234;BME280;26968;42.686;23.352;2023-01-25T07:32:58;96317.09;;;2.80;72.75
41234;BME280;26968;42.686;23.352;2023-01-25T07:35:23;96274.47;;;2.52;73.47
41234;BME280;26968;42.686;23.352;2023-01-25T07:37:49;96253.44;;;2.25;73.54
41234;BME280;26968;42.686;23.352;2023-01-25T07:40:14;96263.94;;;2.39;72.71
41234;BME280;26968;42.686;23.352;2023-01-25T07:42:40;96237.38;;;2.35;73.23
41234;BME280;26968;42.686;23.352;2023-01-25T07:45:07;96266.84;;;2.57;73.56
41234;BME280;26968;42.686;23.352;2023-01-25T07:47:33;96240.19;;;2.33;72.77
41234;BME280;26968;42.686;23.352;2023-01-25T07:49:58;96233.94;;;2.28;73.13
41234;BME280;26968;42.686;23.352;2023-01-25T07:52:23;96251.50;;;2.47;71.92
41234;BME280;26968;42.686;23.352;2023-01-25T07:54:49;96206.66;;;2.09;73.01
41234;BME280;26968;42.686;23.352;2023-01-25T07:57:15;96214.19;;;1.84;72.38
41234;BME280;26968;42.686;23.352;2023-01-25T07:59:40;96253.72;;;2.03;73.11
41234;BME280;26968;42.686;23.352;2023-01-25T08:02:09;96207.16;;;1.85;72.83
41234;BME280;26968;42.686;23.352;2023-01-25T08:04:34;96259.06;;;2.22;73.38
41234;BME280;26968;42.686;23.352;2023-01-25T08:07:00;96215.84;;;1.92;74.33
41234;BME280;26968;42.686;23.352;2023-01-25T08:09:25;96320.03;;;2.57;74.50
41234;BME280;26968;42.686;23.352;2023-01-25T08:11:51;96229.00;;;2.05;74.12
41234;BME280;26968;42.686;23.352;2023-01-25T08:14:17;96241.16;;;1.85;73.55
41234;BME280;26968;42.686;23.352;2023-01-25T08:16:43;96165.00;;;1.60;74.25
41234;BME280;26968;42.686;23.352;2023-01-25T08:19:09;96296.19;;;2.46;73.85
41234;BME280;26968;42.686;23.352;2023-01-25T08:21:35;96323.28;;;2.66;74.08
41234;BME280;26968;42.686;23.352;2023-01-25T08:24:04;96314.03;;;2.77;74.68
41234;BME280;26968;42.686;23.352;2023-01-25T08:26:30;96230.13;;;1.89;74.87
41234;BME280;26968;42.686;23.352;2023-01-25T08:28:56;96315.63;;;2.64;74.77
41234;BME280;26968;42.686;23.352;2023-01-25T08:31:24;96213.31;;;2.05;74.46
41234;BME280;26968;42.686;23.352;2023-01-25T08:33:50;96275.66;;;2.43;74.30
41234;BME280;26968;42.686;23.352;2023-01-25T08:36:17;96286.97;;;2.50;74.76
41234;BME280;26968;42.686;23.352;2023-01-25T08:38:44;96286.00;;;2.57;74.39
41234;BME280;26968;42.686;23.352;2023-01-25T08:41:17;96285.72;;;2.46;74.71
41234;BME280;26968;42.686;23.352;2023-01-25T08:43:44;96267.78;;;2.36;74.79
41234;BME280;26968;42.686;23.352;2023-01-25T08:46:10;96308.78;;;2.70;75.36
41234;BME280;26968;42.686;23.352;2023-01-25T08:48:36;96268.22;;;2.46;75.22
41234;BME280;26968;42.686;23.352;2023-01-25T08:51:02;96299.13;;;2.70;75.43
41234;BME280;26968;42.686;23.352;2023-01-25T08:53:31;96208.97;;;2.32;75.12
41234;BME280;26968;42.686;23.352;2023-01-25T08:56:08;96258.44;;;2.75;74.83
41234;BME280;26968;42.686;23.352;2023-01-25T08:58:36;96305.44;;;2.96;73.95
41234;BME280;26968;42.686;23.352;2023-01-25T09:01:04;96157.19;;;2.21;74.51
41234;BME280;26968;42.686;23.352;2023-01-25T09:03:33;96256.41;;;2.83;74.33
41234;BME280;26968;42.686;23.352;2023-01-25T09:05:59;96310.88;;;3.01;75.75
41234;BME280;26968;42.686;23.352;2023-01-25T09:08:24;96267.72;;;2.90;75.14
41234;BME280;26968;42.686;23.352;2023-01-25T09:10:50;96299.41;;;3.15;73.66
41234;BME280;26968;42.686;23.352;2023-01-25T09:13:15;96300.03;;;3.10;74.09
41234;BME280;26968;42.686;23.352;2023-01-25T09:15:40;96217.09;;;2.63;75.23
41234;BME280;26968;42.686;23.352;2023-01-25T09:18:06;96249.19;;;2.85;74.75
41234;BME280;26968;42.686;23.352;2023-01-25T09:20:31;96274.00;;;3.02;74.82
41234;BME280;26968;42.686;23.352;2023-01-25T09:22:57;96235.06;;;2.73;74.91
41234;BME280;26968;42.686;23.352;2023-01-25T09:25:22;96249.81;;;2.94;75.05
41234;BME280;26968;42.686;23.352;2023-01-25T09:27:49;96290.72;;;3.01;76.34
41234;BME280;26968;42.686;23.352;2023-01-25T09:30:16;96263.28;;;2.84;76.19
41234;BME280;26968;42.686;23.352;2023-01-25T09:32:41;96197.88;;;2.37;76.57
41234;BME280;26968;42.686;23.352;2023-01-25T09:35:07;96255.25;;;2.99;76.63
41234;BME280;26968;42.686;23.352;2023-01-25T09:37:33;96206.06;;;2.81;75.96
41234;BME280;26968;42.686;23.352;2023-01-25T09:39:58;96244.75;;;2.79;76.07
41234;BME280;26968;42.686;23.352;2023-01-25T09:47:45;96234.63;;;2.69;76.60
41234;BME280;26968;42.686;23.352;2023-01-25T09:50:24;96255.06;;;3.07;76.88
41234;BME280;26968;42.686;23.352;2023-01-25T09:55:39;96142.34;;;2.61;75.49
41234;BME280;26968;42.686;23.352;2023-01-25T09:58:12;96208.06;;;2.99;75.31
41234;BME280;26968;42.686;23.352;2023-01-25T10:00:43;96194.38;;;3.03;75.67
41234;BME280;26968;42.686;23.352;2023-01-25T10:03:30;96234.28;;;3.38;75.75
41234;BME280;26968;42.686;23.352;2023-01-25T10:06:00;96197.41;;;3.33;75.26
41234;BME280;26968;42.686;23.352;2023-01-25T10:11:25;96218.16;;;3.41;73.38
41234;BME280;26968;42.686;23.352;2023-01-25T10:13:52;96192.34;;;2.99;73.14
41234;BME280;26968;42.686;23.352;2023-01-25T10:19:24;96207.66;;;3.48;73.01
41234;BME280;26968;42.686;23.352;2023-01-25T10:22:00;96184.84;;;3.55;72.52
41234;BME280;26968;42.686;23.352;2023-01-25T10:27:45;96170.59;;;3.18;71.11
41234;BME280;26968;42.686;23.352;2023-01-25T10:30:28;96102.88;;;2.95;71.25
41234;BME280;26968;42.686;23.352;2023-01-25T10:32:59;96164.91;;;3.41;71.54
41234;BME280;26968;42.686;23.352;2023-01-25T10:35:32;96188.66;;;3.72;70.74
41234;BME280;26968;42.686;23.352;2023-01-25T10:38:05;96162.81;;;3.69;71.37
41234;BME280;26968;42.686;23.352;2023-01-25T10:40:44;96137.25;;;3.58;71.12
41234;BME280;26968;42.686;23.352;2023-01-25T10:43:19;96164.50;;;3.51;70.95
41234;BME280;26968;42.686;23.352;2023-01-25T10:45:45;96143.41;;;3.77;70.17
41234;BME280;26968;42.686;23.352;2023-01-25T10:48:17;96167.56;;;3.99;70.99
41234;BME280;26968;42.686;23.352;2023-01-25T10:50:46;96071.69;;;3.45;70.00
41234;BME280;26968;42.686;23.352;2023-01-25T10:53:37;96169.34;;;4.05;70.49
41234;BME280;26968;42.686;23.352;2023-01-25T10:58:43;96165.63;;;3.81;70.02
41234;BME280;26968;42.686;23.352;2023-01-25T11:01:31;95993.81;;;3.01;70.32
41234;BME280;26968;42.686;23.352;2023-01-25T11:03:57;96136.09;;;3.92;70.02
41234;BME280;26968;42.686;23.352;2023-01-25T11:06:33;96156.44;;;4.10;69.07
41234;BME280;26968;42.686;23.352;2023-01-25T11:09:04;96151.22;;;4.03;70.12
41234;BME280;26968;42.686;23.352;2023-01-25T11:14:18;96139.44;;;4.12;70.13
41234;BME280;26968;42.686;23.352;2023-01-25T11:16:47;96106.84;;;3.88;68.15
41234;BME280;26968;42.686;23.352;2023-01-25T11:19:38;96131.91;;;4.22;68.85
41234;BME280;26968;42.686;23.352;2023-01-25T11:24:44;96130.94;;;4.17;67.68
41234;BME280;26968;42.686;23.352;2023-01-25T11:27:17;96106.09;;;4.13;67.92
41234;BME280;26968;42.686;23.352;2023-01-25T11:29:45;96104.34;;;4.07;67.80
41234;BME280;26968;42.686;23.352;2023-01-25T11:32:17;96085.34;;;4.05;68.76
41234;BME280;26968;42.686;23.352;2023-01-25T11:34:48;96132.19;;;4.46;68.07
41234;BME280;26968;42.686;23.352;2023-01-25T11:37:33;96122.22;;;4.23;68.69
41234;BME280;26968;42.686;23.352;2023-01-25T11:55:26;96085.09;;;4.13;68.33
41234;BME280;26968;42.686;23.352;2023-01-25T11:58:02;96084.25;;;4.25;68.38
41234;BME280;26968;42.686;23.352;2023-01-25T12:01:12;96076.94;;;3.96;68.44
41234;BME280;26968;42.686;23.352;2023-01-25T12:03:58;96078.03;;;4.13;67.96
41234;BME280;26968;42.686;23.352;2023-01-25T12:10:16;96075.94;;;3.91;68.98
41234;BME280;26968;42.686;23.352;2023-01-25T12:18:06;95982.00;;;3.30;68.57
41234;BME280;26968;42.686;23.352;2023-01-25T12:21:05;96068.44;;;4.01;68.69
41234;BME280;26968;42.686;23.352;2023-01-25T12:26:27;96010.41;;;3.39;68.50
41234;BME280;26968;42.686;23.352;2023-01-25T12:29:02;95991.59;;;3.49;68.03
41234;BME280;26968;42.686;23.352;2023-01-25T12:31:46;96057.09;;;4.07;68.57
41234;BME280;26968;42.686;23.352;2023-01-25T12:34:36;96056.16;;;3.95;68.43
41234;BME280;26968;42.686;23.352;2023-01-25T12:37:23;96052.47;;;4.02;69.02
41234;BME280;26968;42.686;23.352;2023-01-25T12:42:46;95961.31;;;3.53;69.06
41234;BME280;26968;42.686;23.352;2023-01-25T12:45:30;95974.44;;;3.53;67.46
41234;BME280;26968;42.686;23.352;2023-01-25T12:48:01;95987.25;;;3.68;67.13
41234;BME280;26968;42.686;23.352;2023-01-25T12:56:28;96038.19;;;4.23;68.24
41234;BME280;26968;42.686;23.352;2023-01-25T12:59:01;96017.97;;;3.99;68.31
41234;BME280;26968;42.686;23.352;2023-01-25T13:12:22;95997.91;;;4.11;66.51
41234;BME280;26968;42.686;23.352;2023-01-25T13:14:49;95975.34;;;3.72;67.24
41234;BME280;26968;42.686;23.352;2023-01-25T13:17:28;95985.59;;;3.80;67.66
41234;BME280;26968;42.686;23.352;2023-01-25T13:19:56;95948.56;;;3.63;67.42
41234;BME280;26968;42.686;23.352;2023-01-25T13:22:52;95846.41;;;3.05;66.66
41234;BME280;26968;42.686;23.352;2023-01-25T13:27:45;95976.41;;;3.96;67.47
41234;BME280;26968;42.686;23.352;2023-01-25T13:35:31;96005.94;;;4.16;66.82
41234;BME280;26968;42.686;23.352;2023-01-25T13:38:04;96012.19;;;4.15;66.93
41234;BME280;26968;42.686;23.352;2023-01-25T13:40:37;95897.50;;;3.34;67.10
41234;BME280;26968;42.686;23.352;2023-01-25T13:43:18;96019.91;;;4.10;66.46
41234;BME280;26968;42.686;23.352;2023-01-25T13:45:46;95929.09;;;3.46;65.95
41234;BME280;26968;42.686;23.352;2023-01-25T13:48:17;96014.06;;;4.08;66.45
41234;BME280;26968;42.686;23.352;2023-01-25T13:51:02;95890.97;;;3.05;67.11
41234;BME280;26968;42.686;23.352;2023-01-25T13:53:31;96003.09;;;3.86;66.69
41234;BME280;26968;42.686;23.352;2023-01-25T13:56:01;96031.28;;;4.04;67.11
41234;BME280;26968;42.686;23.352;2023-01-25T13:58:34;96019.22;;;3.96;67.85
41234;BME280;26968;42.686;23.352;2023-01-25T14:01:02;96023.69;;;3.89;68.08
41234;BME280;26968;42.686;23.352;2023-01-25T14:03:55;96031.00;;;3.80;67.68
41234;BME280;26968;42.686;23.352;2023-01-25T14:06:33;96025.47;;;3.95;67.71
41234;BME280;26968;42.686;23.352;2023-01-25T14:09:11;95932.72;;;3.45;67.53
41234;BME280;26968;42.686;23.352;2023-01-25T14:11:48;96029.47;;;3.60;68.48
41234;BME280;26968;42.686;23.352;2023-01-25T14:14:24;96031.28;;;3.66;68.53
41234;BME280;26968;42.686;23.352;2023-01-25T14:19:35;95970.84;;;2.96;69.13
41234;BME280;26968;42.686;23.352;2023-01-25T14:22:22;96031.00;;;3.29;68.86
41234;BME280;26968;42.686;23.352;2023-01-25T14:27:44;96018.94;;;3.66;68.39
41234;BME280;26968;42.686;23.352;2023-01-25T14:30:21;96018.25;;;3.46;68.16
41234;BME280;26968;42.686;23.352;2023-01-25T14:32:53;96015.25;;;3.42;68.72
41234;BME280;26968;42.686;23.352;2023-01-25T14:35:38;96011.97;;;3.47;68.81
41234;BME280;26968;42.686;23.352;2023-01-25T14:38:18;96006.53;;;3.48;68.63
41234;BME280;26968;42.686;23.352;2023-01-25T14:40:45;96006.34;;;3.43;69.03
41234;BME280;26968;42.686;23.352;2023-01-25T14:43:12;95998.63;;;3.55;68.60
41234;BME280;26968;42.686;23.352;2023-01-25T14:45:38;96003.34;;;3.40;68.75
41234;BME280;26968;42.686;23.352;2023-01-25T14:48:04;95962.59;;;2.93;69.64
41234;BME280;26968;42.686;23.352;2023-01-25T14:50:35;95948.09;;;2.84;70.00
41234;BME280;26968;42.686;23.352;2023-01-25T14:55:42;95959.22;;;2.72;69.66